默认 日期 大小 文件数 浏览量 最新下载 xml
trailer磁力链接相关资源由用户搜索指令自动获取,结果来源于网络,本站不存储任何资料,亦不承担任何责任,请于24小时内删除,搜索到4084个磁力,显示前4000条数据,用时4ms。
    {"RARBG.txt": 30, "Trailer.Park.Boys.S11E04.Darth.Lahey.720p.NF.WEBRip.DD5.1.x264-RTN.mkv": 1203306689}
创建时间: 2018-10-28 23:45:23 大小:1.12 GB 文件数量:2 热度:15 最近下载:2025-06-16 19:29:01
    ... Kyberpunk.mkv": 366917802, "Trailer.Park.Boys.S03E02.Temporary. ... Relief.Assistant.Trailer.Park.Supervisor.x264. ... Kyberpunk.mkv": 372304460, "Trailer.Park.Boys.S04E07.Propane, ... ": 328547500}, "S06": {"Trailer.Park.Boys.S06E05.Halloween.1977 ...
创建时间: 2018-10-29 00:38:20 大小:16.49 GB 文件数量:47 热度:16 最近下载:2025-06-14 19:43:01
    {"skidrow.nfo": 11264, "sr-et2ktp.iso": 5135892480}
创建时间: 2018-10-29 00:59:10 大小:4.78 GB 文件数量:2 热度:37 最近下载:2025-08-03 05:07:06
    {"The.Long.Long.Trailer.Lucille.Ball.1953.DVDRip.Oldies.avi": 1078028288}
创建时间: 2018-10-29 02:31:16 大小:1 GB 文件数量:1 热度:33 最近下载:2025-06-12 07:15:02
    ... .png": 359871, "screen0004.png": 370741}, "Trailer.Park.Boys.S12E04.XviD-AFG ... .avi": 581896858, "Trailer.Park.Boys.S12E04.XviD-AFG ...
创建时间: 2018-10-29 03:55:32 大小:556.51 MB 文件数量:7 热度:13 最近下载:2025-06-10 20:25:01
    {"CD Front.jpg": 96781, "10.Stupid.flac": 19102713, "02.My House.flac": 17694024, "07.Step Off.flac": 19699690, "04.Dandelion.flac": 17986642, "06.I Miss You.flac": 23424885, "05.Blowin Smoke.flac": 20942626, "01.Silver Lining.flac": 24302974, "03.Merry Go ...
创建时间: 2018-10-29 06:12:22 大小:242.13 MB 文件数量:13 热度:29 最近下载:2025-08-26 01:09:02
    {"RARBG.com.txt": 34, "Trailer.Park.Boys.Out.of.the.Park.S01E03.720p.WEBRip.X264-DEFLATE.mkv": 1808583942, "trailer.park.boys.out.of.the.park.s01e03.720p.webrip.x264-deflate.nfo": 585}
创建时间: 2018-10-29 06:17:44 大小:1.68 GB 文件数量:3 热度:18 最近下载:2025-08-05 21:19:07
    {"RARBG.txt": 30, "Trailer.Park.Boys.S12E07.1080p.WEB.x264-METCON.mkv": 1705888696, "trailer.park.boys.s12e07.1080p.web.x264-metcon.nfo": 373}
创建时间: 2018-10-29 07:53:00 大小:1.59 GB 文件数量:3 热度:14 最近下载:2025-06-10 17:49:02
    ... }}, "Documentation": {"Quickstart Installation.pdf": 63958, "TRAILER XPRESSIONS Manual.pdf": 3679286}}
创建时间: 2018-10-29 11:39:51 大小:3.9 GB 文件数量:1183 热度:12 最近下载:2024-12-05 15:19:02
    ... WWW.TORRENTING.COM.txt": 84, "Trailer.Park.Boys.S12E05.720p.HEVC ... .x265-MeGusta.mkv": 476710822, "Trailer.Park.Boys.S12E05.720p.HEVC ...
创建时间: 2018-10-29 12:16:01 大小:459.66 MB 文件数量:7 热度:13 最近下载:2024-12-19 21:48:04
    {"RARBG.txt": 30, "Trailer.Park.Boys.S11E10.The.All.You.Can.Eat.Shit.Buffet.720p.NF.WEBRip.DD5.1.x264-RTN.mkv": 1263738167}
创建时间: 2018-10-29 13:45:32 大小:1.18 GB 文件数量:2 热度:109 最近下载:2025-09-19 17:36:04
    ... .png": 519295, "screen0004.png": 627141}, "Trailer.Park.Boys.S12E03.WEB.x264 ... -METCON.mkv": 427430754, "trailer.park.boys.s12e03.web.x264 ...
创建时间: 2018-10-29 14:36:22 大小:409.8 MB 文件数量:7 热度:12 最近下载:2025-01-03 04:19:06
    {"1.jpg": 554487, "front.jpg": 33488, "wde-pvmt7.mp4": 2498981911, "wde-pvmt7.nfo": 15666}
创建时间: 2018-10-29 15:32:48 大小:2.33 GB 文件数量:4 热度:25 最近下载:2025-10-16 23:39:01
    {"RARBG.txt": 30, "Trailer.Park.Boys.S12E04.720p.WEB.x264-METCON.mkv": 884892298, "trailer.park.boys.s12e04.720p.web.x264-metcon.nfo": 367}
创建时间: 2018-10-29 18:06:52 大小:843.9 MB 文件数量:3 热度:14 最近下载:2024-12-29 20:30:03
    {"Front.jpg": 48889, "05 - Avow.mp3": 6359725, "12 - Sura.mp3": 4543234, "07 - Impera.mp3": 5961978, "15 - Satori.mp3": 4899590, "08 - Evasion.mp3": 5496218, "02 - Slipstream.mp3": 4770671, "04 - Reparation.mp3": 6132313, "06 - Ascendance.mp3": 4831526, " ...
创建时间: 2018-10-29 20:14:00 大小:156.28 MB 文件数量:32 热度:27 最近下载:2024-12-22 07:43:06
    {"RARBG.com.avi": 1190542, "RARBG.com.txt": 34, "Trailer.Park.Boys.Dont.Legalize.It.BRRip.XviD.MP3-RARBG.avi": 1287121378, "Trailer.Park.Boys.Dont.Legalize.It.BRRip.XviD.MP3-RARBG.nfo": 3075}
创建时间: 2018-10-29 23:05:02 大小:1.2 GB 文件数量:4 热度:16 最近下载:2025-08-12 12:04:02
    {"招募图.png": 2710487, "[夜桜字幕组][180110][opiumud]Star Atlas trailer[中文预告].jpg": 1108672, "[夜桜字幕组][180110][opiumud]Star Atlas trailer[中文预告].mp4": 189645146}
创建时间: 2018-10-30 01:54:55 大小:184.5 MB 文件数量:3 热度:593 最近下载:2025-09-13 19:28:04
    ... .mp4": 13082578, "The Epic Action Trailer.aep": 2982749, "The Epic Action ...
创建时间: 2018-10-30 02:54:03 大小:148.78 MB 文件数量:11 热度:14 最近下载:2025-03-27 02:59:05
    ... , "Help_File.pdf": 291106, "World Collapse Trailer.aep": 23071431}
创建时间: 2018-10-30 03:43:16 大小:221.49 MB 文件数量:16 热度:15 最近下载:2025-03-28 08:50:01
    {"Anal Trailer.avi": 733462528, "Anal Trailer.avi.jpg": 541229, "96135_cover_123_1100lo.jpg": 114779}
创建时间: 2018-10-30 05:18:58 大小:700.11 MB 文件数量:3 热度:16 最近下载:2025-01-13 01:22:04